Time;durP1;ratioP1;P1;durP2;ratioP2;P2;SDS_P1;SDS_P2;PMS_P1;PMS_P2;Temp;Humidity;BMP_temperature;BMP_pressure;BME280_temperature;BME280_humidity;BME280_pressure;Samples;Min_cycle;Max_cycle;Signal;HPM_P1;HPM_P2
2021/07/27 00:01:38;;;;;;;6.00;3.65;;;16.70;51.20;;;;;;5087014;28;20457;-72
2021/07/27 00:04:26;;;;;;;4.95;3.45;;;16.70;50.30;;;;;;5081775;28;20052;-71
2021/07/27 00:07:15;;;;;;;7.43;4.07;;;16.80;51.40;;;;;;5052943;28;20426;-72
2021/07/27 00:10:03;;;;;;;13.23;4.30;;;16.70;51.40;;;;;;5081522;28;20097;-71
2021/07/27 00:12:52;;;;;;;8.50;4.22;;;16.60;52.20;;;;;;5083406;28;20481;-72
2021/07/27 00:15:42;;;;;;;6.93;3.95;;;16.60;52.00;;;;;;5080195;28;20040;-72
2021/07/27 00:18:31;;;;;;;11.18;4.47;;;16.70;52.30;;;;;;5048327;28;20068;-72
2021/07/27 00:21:20;;;;;;;7.13;4.30;;;16.50;52.60;;;;;;5063401;28;20119;-72
2021/07/27 00:24:09;;;;;;;9.48;4.45;;;16.50;53.50;;;;;;5082214;28;20528;-72
2021/07/27 00:26:58;;;;;;;8.35;4.80;;;16.60;54.20;;;;;;5082676;28;20046;-73
2021/07/27 00:29:46;;;;;;;9.90;4.47;;;16.50;54.50;;;;;;5080522;28;20051;-72
2021/07/27 00:32:38;;;;;;;7.13;4.68;;;16.50;55.20;;;;;;5083442;28;20056;-71
2021/07/27 00:35:30;;;;;;;7.93;4.85;;;16.60;54.40;;;;;;5081278;28;20419;-72
2021/07/27 00:38:20;;;;;;;10.10;4.38;;;16.60;53.70;;;;;;5078679;28;20173;-72
2021/07/27 00:41:09;;;;;;;8.80;4.47;;;16.60;53.90;;;;;;5062951;28;20064;-71
2021/07/27 00:43:57;;;;;;;10.60;4.60;;;16.60;53.90;;;;;;5067085;28;20121;-71
2021/07/27 00:46:46;;;;;;;6.47;4.53;;;16.60;54.40;;;;;;5082812;28;20574;-71
2021/07/27 00:49:36;;;;;;;9.52;4.45;;;16.60;54.60;;;;;;5078787;28;20133;-72
2021/07/27 00:52:24;;;;;;;8.68;4.82;;;16.50;54.60;;;;;;5082954;28;20285;-71
2021/07/27 00:55:14;;;;;;;9.15;4.95;;;16.50;54.80;;;;;;5081470;28;20052;-72
2021/07/27 00:58:03;;;;;;;7.05;4.60;;;16.50;54.60;;;;;;5069955;28;20569;-72
2021/07/27 01:00:52;;;;;;;7.70;4.80;;;16.50;54.80;;;;;;5082879;28;20055;-72
2021/07/27 01:03:40;;;;;;;10.30;5.13;;;16.50;55.20;;;;;;5079055;28;20051;-73
2021/07/27 01:06:31;;;;;;;8.50;5.53;;;16.50;55.20;;;;;;5065642;28;20087;-72
2021/07/27 01:09:19;;;;;;;12.00;5.18;;;16.40;55.10;;;;;;5077296;28;20196;-71
2021/07/27 01:12:08;;;;;;;8.35;4.80;;;16.40;55.80;;;;;;5078256;28;20186;-71
2021/07/27 01:14:56;;;;;;;11.82;5.35;;;16.40;55.80;;;;;;5080731;28;20146;-72
2021/07/27 01:17:45;;;;;;;7.15;5.07;;;16.30;55.10;;;;;;5078884;28;20109;-71
2021/07/27 01:37:19;;;;;;;9.18;4.90;;;16.40;55.20;;;;;;5079982;28;20059;-71
2021/07/27 01:39:37;;;;;;;7.35;4.63;;;16.20;56.20;;;;;;5082247;28;20166;-72
2021/07/27 01:42:25;;;;;;;8.77;4.65;;;16.20;56.70;;;;;;5084404;28;20050;-72
2021/07/27 01:45:20;;;;;;;7.47;4.72;;;16.10;56.90;;;;;;5079731;28;20127;-72
2021/07/27 01:48:08;;;;;;;9.25;5.05;;;16.10;56.60;;;;;;5083901;28;20054;-72
2021/07/27 01:50:58;;;;;;;10.57;4.63;;;16.20;56.50;;;;;;5086142;28;20761;-72
2021/07/27 01:53:48;;;;;;;7.28;4.53;;;16.20;56.60;;;;;;5085914;28;20173;-72
2021/07/27 01:56:39;;;;;;;5.65;4.10;;;16.00;56.20;;;;;;5086015;28;20217;-72
2021/07/27 01:59:27;;;;;;;7.82;4.28;;;16.00;57.40;;;;;;5087558;28;20059;-71
2021/07/27 02:02:16;;;;;;;6.57;4.38;;;16.00;58.70;;;;;;5064481;28;20482;-71
2021/07/27 02:05:05;;;;;;;5.88;4.22;;;16.00;58.80;;;;;;5081226;28;20181;-71
2021/07/27 02:07:55;;;;;;;7.95;4.63;;;16.10;58.40;;;;;;5080787;28;20578;-71
2021/07/27 02:10:47;;;;;;;8.32;4.82;;;16.00;58.40;;;;;;5083624;28;20051;-71
2021/07/27 02:13:49;;;;;;;6.57;4.88;;;16.00;58.30;;;;;;5080731;28;20419;-71
2021/07/27 02:16:37;;;;;;;8.45;5.13;;;16.10;58.00;;;;;;5075835;28;20055;-71
2021/07/27 02:19:26;;;;;;;11.07;5.05;;;16.10;57.30;;;;;;5080093;28;20048;-71
2021/07/27 02:22:14;;;;;;;9.32;5.38;;;16.10;57.70;;;;;;5082097;28;20089;-72
2021/07/27 02:25:03;;;;;;;9.90;5.47;;;16.10;58.10;;;;;;5082150;28;20048;-71
2021/07/27 02:27:52;;;;;;;15.48;6.05;;;16.10;58.30;;;;;;5079814;28;20168;-71
2021/07/27 02:30:48;;;;;;;9.68;6.78;;;16.20;58.40;;;;;;5079261;28;20411;-71
2021/07/27 02:33:37;;;;;;;10.02;6.70;;;16.20;57.60;;;;;;5085538;28;20087;-72
2021/07/27 02:36:25;;;;;;;8.75;6.35;;;16.20;58.00;;;;;;5076591;28;20071;-72
2021/07/27 02:39:14;;;;;;;12.95;6.93;;;16.10;58.40;;;;;;5080590;28;20114;-72
2021/07/27 02:42:03;;;;;;;7.72;5.82;;;16.20;58.40;;;;;;5084591;28;20048;-72
2021/07/27 02:44:51;;;;;;;11.75;7.30;;;16.10;58.40;;;;;;5079982;28;20170;-71
2021/07/27 02:47:42;;;;;;;8.88;6.70;;;16.00;58.80;;;;;;5065826;28;20044;-71
2021/07/27 02:50:31;;;;;;;9.57;6.82;;;16.00;59.40;;;;;;5079594;28;20070;-71
2021/07/27 02:53:19;;;;;;;12.70;7.28;;;16.00;58.80;;;;;;5082946;28;20177;-71
2021/07/27 02:56:07;;;;;;;10.88;6.38;;;16.00;58.80;;;;;;5080159;28;20117;-72
2021/07/27 02:58:56;;;;;;;12.60;6.63;;;15.90;58.70;;;;;;5082363;28;20468;-71
2021/07/27 03:01:44;;;;;;;12.88;6.55;;;16.00;59.20;;;;;;5084677;28;20055;-72
2021/07/27 03:04:34;;;;;;;9.07;6.13;;;15.90;58.80;;;;;;5078914;28;20056;-72
2021/07/27 03:07:32;;;;;;;15.48;6.63;;;15.90;59.20;;;;;;5080268;28;20048;-72
2021/07/27 03:10:21;;;;;;;10.25;6.45;;;15.90;59.50;;;;;;5064860;28;20036;-72
2021/07/27 03:13:09;;;;;;;10.55;6.55;;;15.90;59.40;;;;;;5066863;28;20175;-70
2021/07/27 03:15:57;;;;;;;12.10;7.15;;;15.80;59.20;;;;;;5079775;28;20044;-71
2021/07/27 03:18:48;;;;;;;10.77;6.32;;;15.80;59.60;;;;;;5067393;28;20099;-71
2021/07/27 03:21:37;;;;;;;9.00;6.35;;;15.70;59.30;;;;;;5081751;28;20134;-71
2021/07/27 03:24:26;;;;;;;11.07;6.47;;;15.80;60.40;;;;;;5079074;28;20134;-72
2021/07/27 03:27:14;;;;;;;11.95;6.05;;;15.90;60.60;;;;;;5082821;28;20079;-71
2021/07/27 03:30:02;;;;;;;9.98;6.35;;;15.80;59.90;;;;;;5085267;28;20156;-71
2021/07/27 03:32:52;;;;;;;8.68;5.78;;;15.80;59.50;;;;;;5081269;28;20132;-71
2021/07/27 03:35:40;;;;;;;8.88;5.60;;;15.80;60.00;;;;;;5078487;28;20109;-71
2021/07/27 03:38:30;;;;;;;10.13;6.18;;;15.80;60.10;;;;;;5081132;28;20067;-71
2021/07/27 03:41:19;;;;;;;7.93;5.85;;;15.80;60.10;;;;;;5080842;28;20036;-71
2021/07/27 03:44:07;;;;;;;9.98;7.22;;;15.90;59.90;;;;;;5079193;28;20097;-71
2021/07/27 03:47:06;;;;;;;9.85;7.10;;;16.00;59.80;;;;;;5062297;28;20050;-72
2021/07/27 03:49:55;;;;;;;14.88;7.65;;;16.10;59.50;;;;;;5079443;28;20048;-71
2021/07/27 03:52:43;;;;;;;15.75;7.03;;;16.20;59.50;;;;;;5082664;28;20047;-71
2021/07/27 03:55:34;;;;;;;10.18;7.50;;;16.20;59.20;;;;;;5078731;28;20102;-71
2021/07/27 03:58:23;;;;;;;11.82;7.70;;;16.20;59.10;;;;;;5084649;28;20052;-72
2021/07/27 04:01:11;;;;;;;11.38;6.93;;;16.10;59.10;;;;;;5066561;28;20093;-72
2021/07/27 04:04:00;;;;;;;11.63;7.00;;;16.20;59.60;;;;;;5084690;28;20048;-72
2021/07/27 04:06:49;;;;;;;8.70;6.93;;;16.30;58.40;;;;;;5069381;28;20515;-72
2021/07/27 04:09:38;;;;;;;16.67;6.95;;;16.20;57.80;;;;;;5081905;28;20071;-72
2021/07/27 04:12:28;;;;;;;11.82;7.32;;;16.30;58.10;;;;;;5079357;28;20238;-73
2021/07/27 04:15:16;;;;;;;12.02;6.97;;;16.50;55.30;;;;;;5075526;28;20052;-71
2021/07/27 04:18:04;;;;;;;10.63;6.45;;;17.00;49.40;;;;;;5082999;28;20054;-71
2021/07/27 04:20:55;;;;;;;8.75;6.65;;;17.50;43.90;;;;;;5081239;28;20146;-72
2021/07/27 04:23:43;;;;;;;10.05;6.07;;;17.60;37.60;;;;;;5083475;28;20044;-71
2021/07/27 04:26:32;;;;;;;12.20;6.18;;;17.90;34.90;;;;;;5081050;28;20056;-71
2021/07/27 04:29:22;;;;;;;17.70;6.47;;;17.90;33.20;;;;;;5081461;28;20076;-72
2021/07/27 04:32:10;;;;;;;7.75;5.80;;;18.40;26.30;;;;;;5080417;28;20052;-71
2021/07/27 04:34:58;;;;;;;9.48;5.68;;;19.00;23.60;;;;;;5077396;28;20044;-72
2021/07/27 04:37:47;;;;;;;8.60;5.43;;;19.20;17.80;;;;;;5076687;28;20136;-71
2021/07/27 04:40:35;;;;;;;8.57;5.82;;;19.40;16.70;;;;;;5078030;28;20039;-72
2021/07/27 04:43:24;;;;;;;9.40;6.25;;;19.80;15.10;;;;;;5081400;28;20101;-72
2021/07/27 04:46:14;;;;;;;9.60;5.95;;;20.30;13.30;;;;;;5078051;28;20497;-70
2021/07/27 04:49:02;;;;;;;8.73;5.32;;;20.90;9.00;;;;;;5079605;28;20134;-71
2021/07/27 04:51:51;;;;;;;10.75;6.18;;;20.90;4.80;;;;;;5077986;28;20044;-71
2021/07/27 04:54:50;;;;;;;16.40;6.25;;;21.00;5.50;;;;;;5081745;28;20064;-71
2021/07/27 04:57:39;;;;;;;10.10;5.30;;;21.20;3.70;;;;;;5077971;28;20051;-71
2021/07/27 05:00:28;;;;;;;11.00;5.55;;;20.80;5.10;;;;;;5067667;28;20423;-71
2021/07/27 05:03:17;;;;;;;12.63;5.75;;;21.30;4.20;;;;;;5066266;28;20149;-72
2021/07/27 05:06:07;;;;;;;10.63;4.90;;;21.40;1.80;;;;;;5077962;28;20123;-71
2021/07/27 05:08:56;;;;;;;7.88;5.10;;;20.90;3.90;;;;;;5078736;28;20079;-70
2021/07/27 05:11:44;;;;;;;9.88;5.70;;;21.20;2.90;;;;;;5064941;28;22193;-72
2021/07/27 05:14:32;;;;;;;11.93;5.05;;;20.50;6.50;;;;;;5076217;28;20059;-72
2021/07/27 05:17:21;;;;;;;6.65;4.63;;;21.10;5.90;;;;;;5080233;28;20056;-71
2021/07/27 05:20:13;;;;;;;7.80;5.43;;;21.40;1.00;;;;;;5082235;28;20044;-70
2021/07/27 05:23:02;;;;;;;11.00;5.43;;;21.50;1.00;;;;;;5076842;28;20047;-71
2021/07/27 05:25:50;;;;;;;11.10;5.78;;;21.40;1.00;;;;;;5061848;28;20135;-71
2021/07/27 05:28:39;;;;;;;8.75;5.95;;;21.60;1.00;;;;;;5078401;28;20080;-72
2021/07/27 05:31:27;;;;;;;12.43;6.57;;;22.90;1.00;;;;;;5063481;28;20495;-70
2021/07/27 05:34:15;;;;;;;8.70;6.22;;;22.20;1.00;;;;;;5075038;28;20140;-70
2021/07/27 05:37:05;;;;;;;9.38;5.78;;;22.40;1.00;;;;;;5077707;28;20040;-72
2021/07/27 05:39:55;;;;;;;9.30;5.43;;;22.60;1.00;;;;;;5080575;28;20719;-72
2021/07/27 05:42:44;;;;;;;16.02;6.70;;;22.40;1.00;;;;;;5082792;28;20063;-70
2021/07/27 05:45:32;;;;;;;9.43;6.18;;;22.40;1.00;;;;;;5074418;28;20060;-71
2021/07/27 05:48:24;;;;;;;13.15;6.50;;;22.20;1.00;;;;;;5081213;28;20513;-70
2021/07/27 05:51:14;;;;;;;9.32;5.72;;;21.10;1.00;;;;;;5078354;28;20475;-71
2021/07/27 05:54:04;;;;;;;9.27;6.13;;;22.30;1.00;;;;;;5083016;28;20491;-71
2021/07/27 05:56:54;;;;;;;14.38;6.82;;;22.80;1.00;;;;;;5082349;28;20051;-71
2021/07/27 05:59:43;;;;;;;9.75;6.65;;;22.40;1.00;;;;;;5075596;28;20433;-71
2021/07/27 06:02:31;;;;;;;13.93;6.70;;;21.70;1.00;;;;;;5078359;28;20123;-70
2021/07/27 06:05:20;;;;;;;9.13;6.40;;;20.60;7.00;;;;;;5077473;28;20055;-71
2021/07/27 06:08:08;;;;;;;11.57;6.70;;;20.00;12.50;;;;;;5083862;28;20123;-72
2021/07/27 06:10:58;;;;;;;11.55;7.18;;;20.30;11.10;;;;;;5083633;28;20090;-71
2021/07/27 06:13:47;;;;;;;14.02;7.07;;;20.40;11.40;;;;;;5068737;28;20071;-71
2021/07/27 06:16:37;;;;;;;10.55;5.78;;;20.70;8.90;;;;;;5078680;28;20052;-73
2021/07/27 06:19:26;;;;;;;10.60;6.40;;;21.10;8.20;;;;;;5083243;28;20110;-70
2021/07/27 06:22:17;;;;;;;10.93;5.63;;;21.50;6.20;;;;;;5066980;28;20037;-71
2021/07/27 06:25:10;;;;;;;8.18;6.28;;;22.00;3.30;;;;;;5066401;28;20064;-72
2021/07/27 06:28:00;;;;;;;12.68;5.55;;;22.80;1.00;;;;;;5065679;28;20188;-72
2021/07/27 06:30:49;;;;;;;9.82;5.95;;;22.20;1.00;;;;;;5052870;28;20048;-72
2021/07/27 06:33:37;;;;;;;8.27;5.75;;;21.70;2.50;;;;;;5067734;28;20051;-72
2021/07/27 06:36:27;;;;;;;7.55;5.47;;;21.80;4.80;;;;;;5077518;28;20069;-71
2021/07/27 06:39:17;;;;;;;12.13;5.75;;;21.50;4.80;;;;;;5083570;28;20055;-72
2021/07/27 06:42:05;;;;;;;10.85;5.68;;;20.90;8.20;;;;;;5083048;28;20128;-71
2021/07/27 06:44:55;;;;;;;10.07;5.65;;;20.90;9.60;;;;;;5080728;28;20132;-70
2021/07/27 06:47:43;;;;;;;9.38;5.82;;;20.90;10.60;;;;;;5082363;28;20066;-71
2021/07/27 06:50:32;;;;;;;8.15;5.35;;;20.70;12.20;;;;;;5077018;28;20209;-71
2021/07/27 06:53:20;;;;;;;7.82;6.00;;;20.50;11.60;;;;;;5078468;28;20569;-70
2021/07/27 06:56:10;;;;;;;9.63;5.97;;;20.80;12.40;;;;;;5077360;28;20056;-70
2021/07/27 06:59:00;;;;;;;9.45;6.25;;;20.80;10.50;;;;;;5082598;28;20127;-71
2021/07/27 07:01:50;;;;;;;8.00;5.63;;;21.50;10.20;;;;;;5083563;28;20060;-71
2021/07/27 07:04:39;;;;;;;11.13;6.90;;;21.40;8.10;;;;;;5080895;28;20051;-70
2021/07/27 07:07:27;;;;;;;10.30;6.05;;;21.10;11.70;;;;;;5084530;28;20135;-71
2021/07/27 07:10:16;;;;;;;10.18;6.75;;;21.50;11.50;;;;;;5083274;28;21436;-71
2021/07/27 07:13:04;;;;;;;11.68;5.90;;;21.50;9.80;;;;;;5081052;28;20063;-70
2021/07/27 07:15:54;;;;;;;7.78;5.93;;;21.30;10.10;;;;;;5078186;28;20050;-70
2021/07/27 07:18:43;;;;;;;11.60;6.72;;;21.10;10.10;;;;;;5083230;28;20056;-70
2021/07/27 07:21:32;;;;;;;7.55;5.78;;;21.50;10.30;;;;;;5081283;28;20040;-71
2021/07/27 07:24:20;;;;;;;9.15;5.55;;;21.80;7.00;;;;;;5069476;28;20043;-72
2021/07/27 07:27:09;;;;;;;8.93;6.15;;;22.00;5.70;;;;;;5074829;28;20713;-72
2021/07/27 07:29:58;;;;;;;10.75;5.25;;;22.10;5.20;;;;;;5079125;28;20048;-72
2021/07/27 07:32:46;;;;;;;12.93;5.72;;;22.50;5.00;;;;;;5079457;28;20105;-72
2021/07/27 07:35:36;;;;;;;9.13;4.70;;;22.40;4.60;;;;;;5077137;28;20048;-72
2021/07/27 07:38:25;;;;;;;6.95;5.15;;;22.30;4.90;;;;;;5080891;28;20186;-72
2021/07/27 07:41:13;;;;;;;11.40;7.95;;;22.20;2.90;;;;;;5078158;28;20123;-70
2021/07/27 07:44:01;;;;;;;11.75;6.40;;;22.60;2.90;;;;;;5079502;28;20053;-71
2021/07/27 07:46:50;;;;;;;8.38;5.22;;;23.10;2.90;;;;;;5075656;28;20051;-71
2021/07/27 07:49:38;;;;;;;8.57;5.63;;;23.10;1.00;;;;;;5072428;28;20058;-71
2021/07/27 07:52:28;;;;;;;6.05;4.75;;;22.80;1.00;;;;;;5065345;28;20520;-70
2021/07/27 07:55:16;;;;;;;6.90;4.72;;;23.00;1.00;;;;;;5077578;28;20097;-70
2021/07/27 07:58:05;;;;;;;7.22;4.78;;;22.40;1.00;;;;;;5080358;28;20150;-70
2021/07/27 08:00:53;;;;;;;6.07;5.07;;;22.40;1.00;;;;;;5080640;28;20136;-71
2021/07/27 08:03:42;;;;;;;6.95;4.38;;;22.50;1.00;;;;;;5080439;28;20504;-70
2021/07/27 08:06:30;;;;;;;7.10;4.97;;;23.00;1.00;;;;;;5075651;28;20072;-70
2021/07/27 08:09:20;;;;;;;7.47;4.45;;;23.10;1.00;;;;;;5082615;28;20415;-71
2021/07/27 08:12:08;;;;;;;6.95;4.30;;;23.40;1.00;;;;;;5082627;28;20058;-71
2021/07/27 08:14:57;;;;;;;7.60;4.57;;;23.70;1.00;;;;;;5078491;28;20063;-71
2021/07/27 08:17:46;;;;;;;6.28;4.55;;;23.30;1.00;;;;;;5083235;28;20043;-72
2021/07/27 08:20:34;;;;;;;7.65;4.60;;;23.40;1.00;;;;;;5081705;28;20040;-71
2021/07/27 08:23:22;;;;;;;8.05;4.55;;;23.30;1.00;;;;;;5083174;28;20074;-72
2021/07/27 08:26:12;;;;;;;5.57;3.92;;;23.60;1.00;;;;;;5078415;28;20096;-70
2021/07/27 08:29:01;;;;;;;11.75;4.70;;;23.70;1.00;;;;;;5081546;28;20073;-71
2021/07/27 08:31:49;;;;;;;5.18;4.30;;;23.70;1.00;;;;;;5062790;28;20106;-71
2021/07/27 08:34:39;;;;;;;5.80;4.35;;;23.80;1.00;;;;;;5081013;28;20196;-70
2021/07/27 08:37:27;;;;;;;6.68;4.45;;;23.40;1.00;;;;;;5081383;28;20054;-71
2021/07/27 08:40:18;;;;;;;14.07;9.73;;;23.70;1.00;;;;;;5081505;28;20047;-72
2021/07/27 08:43:08;;;;;;;5.60;4.68;;;23.70;1.00;;;;;;5065683;28;20063;-72
2021/07/27 08:45:57;;;;;;;7.13;5.13;;;23.70;1.00;;;;;;5063247;28;20044;-72
2021/07/27 08:48:46;;;;;;;6.30;4.43;;;23.60;1.00;;;;;;5083800;28;20056;-72
2021/07/27 08:51:35;;;;;;;4.80;4.28;;;24.10;1.00;;;;;;5081015;28;20174;-72
2021/07/27 08:54:24;;;;;;;7.70;5.18;;;24.20;1.00;;;;;;5080747;28;20048;-71
2021/07/27 08:57:14;;;;;;;8.60;4.85;;;23.80;1.00;;;;;;5080171;28;20406;-71
2021/07/27 09:00:05;;;;;;;8.63;4.72;;;24.50;1.00;;;;;;5063530;28;20044;-70
2021/07/27 09:02:54;;;;;;;12.15;5.00;;;24.50;1.00;;;;;;5081266;28;20131;-71
2021/07/27 09:05:43;;;;;;;5.95;4.85;;;23.90;1.00;;;;;;5061800;28;20075;-70
2021/07/27 09:08:31;;;;;;;8.23;5.57;;;23.60;1.00;;;;;;5078939;28;20051;-71
2021/07/27 09:11:21;;;;;;;13.35;4.95;;;24.20;1.00;;;;;;5064851;28;20048;-71
2021/07/27 09:14:15;;;;;;;7.10;5.15;;;24.50;1.00;;;;;;5055028;28;20082;-71
2021/07/27 09:17:05;;;;;;;7.05;4.70;;;24.90;1.00;;;;;;5078170;28;20071;-71
2021/07/27 09:19:53;;;;;;;5.82;4.82;;;25.00;1.00;;;;;;5080514;28;20522;-70
2021/07/27 09:22:44;;;;;;;8.02;4.82;;;24.50;1.00;;;;;;5079497;28;20560;-71
2021/07/27 09:25:34;;;;;;;8.25;5.93;;;23.80;1.00;;;;;;5077643;28;20042;-71
2021/07/27 09:28:25;;;;;;;6.82;4.85;;;24.70;1.00;;;;;;5066001;28;20036;-70
2021/07/27 09:31:13;;;;;;;6.95;4.95;;;24.60;1.00;;;;;;5079117;28;20119;-71
2021/07/27 09:34:11;;;;;;;5.75;4.90;;;25.00;1.00;;;;;;5074815;28;20136;-70
2021/07/27 09:37:04;;;;;;;5.93;5.07;;;25.30;1.00;;;;;;5076128;28;20145;-70
2021/07/27 09:39:53;;;;;;;6.20;4.95;;;25.10;1.00;;;;;;5078227;28;20044;-71
2021/07/27 09:42:42;;;;;;;6.22;5.18;;;25.70;1.00;;;;;;5084080;28;20048;-70
2021/07/27 09:45:31;;;;;;;10.02;5.30;;;25.50;1.00;;;;;;5081593;28;20131;-71
2021/07/27 09:48:21;;;;;;;11.65;5.13;;;26.10;1.00;;;;;;5082985;28;20434;-70
2021/07/27 09:51:11;;;;;;;6.25;5.15;;;26.50;1.00;;;;;;5083030;28;20036;-71
2021/07/27 09:54:01;;;;;;;8.45;4.97;;;25.40;1.00;;;;;;5083237;28;20585;-70
2021/07/27 09:56:49;;;;;;;7.85;5.30;;;25.70;1.00;;;;;;5069215;28;20539;-71
2021/07/27 09:59:38;;;;;;;10.63;5.57;;;25.80;1.00;;;;;;5084177;28;20115;-71
2021/07/27 10:02:27;;;;;;;9.32;5.07;;;25.60;1.00;;;;;;5083332;28;20381;-71
2021/07/27 10:05:23;;;;;;;6.35;4.47;;;25.90;1.00;;;;;;5065628;28;20162;-71
2021/07/27 10:08:13;;;;;;;6.30;5.07;;;26.00;1.00;;;;;;5084934;28;20132;-70
2021/07/27 10:11:09;;;;;;;5.97;4.53;;;25.30;1.00;;;;;;5070541;28;20215;-70
2021/07/27 10:14:05;;;;;;;6.75;4.97;;;25.50;1.00;;;;;;5083456;28;20051;-71
2021/07/27 10:17:02;;;;;;;8.90;5.63;;;25.40;1.00;;;;;;5068492;28;20048;-71
2021/07/27 10:19:50;;;;;;;5.90;4.60;;;25.50;1.00;;;;;;5081424;28;20100;-70
2021/07/27 10:22:41;;;;;;;8.10;5.20;;;25.30;1.00;;;;;;5084716;28;20435;-70
2021/07/27 10:25:30;;;;;;;7.35;4.60;;;24.90;1.00;;;;;;5064783;28;20044;-71
2021/07/27 10:28:23;;;;;;;6.97;4.70;;;26.00;1.00;;;;;;5084927;28;20393;-70
2021/07/27 10:31:11;;;;;;;6.25;4.80;;;25.80;1.00;;;;;;5082550;28;20048;-70
2021/07/27 10:34:00;;;;;;;7.57;4.38;;;25.30;1.00;;;;;;5080486;28;20039;-72
2021/07/27 10:36:51;;;;;;;5.88;4.80;;;25.50;1.00;;;;;;5080092;28;20079;-70
2021/07/27 10:39:51;;;;;;;6.35;4.63;;;25.10;1.00;;;;;;5068719;28;20094;-70
2021/07/27 10:42:41;;;;;;;7.15;5.30;;;25.80;1.00;;;;;;5082028;28;20071;-71
2021/07/27 10:45:29;;;;;;;5.47;4.97;;;26.20;1.00;;;;;;5079189;28;20044;-70
2021/07/27 10:48:18;;;;;;;6.57;4.80;;;25.10;1.00;;;;;;5084926;28;20116;-71
2021/07/27 10:51:09;;;;;;;5.45;4.25;;;24.90;1.00;;;;;;5081049;28;20431;-71
2021/07/27 10:53:58;;;;;;;8.13;4.75;;;24.80;1.00;;;;;;5083221;28;20048;-71
2021/07/27 10:56:58;;;;;;;6.05;4.50;;;25.00;1.00;;;;;;5080846;28;20170;-72
2021/07/27 10:59:48;;;;;;;6.63;4.75;;;25.70;1.00;;;;;;5080374;28;20182;-71
2021/07/27 11:02:38;;;;;;;8.02;4.85;;;25.70;1.00;;;;;;5082328;28;20048;-71
2021/07/27 11:05:32;;;;;;;8.68;5.32;;;25.50;1.00;;;;;;5063348;28;20059;-70
2021/07/27 11:08:23;;;;;;;8.23;5.18;;;25.60;1.00;;;;;;5081873;28;20056;-71
2021/07/27 11:11:13;;;;;;;8.13;5.57;;;25.50;1.00;;;;;;5080896;28;20891;-72
2021/07/27 11:14:01;;;;;;;7.25;4.97;;;25.60;1.00;;;;;;5068712;28;20044;-72
2021/07/27 11:16:52;;;;;;;6.30;4.55;;;25.40;1.00;;;;;;5081731;28;20131;-73
2021/07/27 11:19:44;;;;;;;12.68;5.43;;;25.20;1.00;;;;;;5082641;28;20048;-71
2021/07/27 11:22:33;;;;;;;5.63;4.30;;;25.60;1.00;;;;;;5056338;28;20051;-70
2021/07/27 11:25:23;;;;;;;5.53;4.63;;;24.90;1.00;;;;;;5063443;28;20479;-72
2021/07/27 11:28:12;;;;;;;5.30;4.68;;;25.30;1.00;;;;;;5069573;28;20076;-71
2021/07/27 11:31:01;;;;;;;6.50;4.72;;;25.10;1.00;;;;;;5080522;28;20051;-71
2021/07/27 11:33:53;;;;;;;5.45;4.43;;;25.30;1.00;;;;;;5081682;28;20044;-71
2021/07/27 11:36:52;;;;;;;4.78;4.18;;;25.40;1.00;;;;;;5080076;28;20123;-71
2021/07/27 11:39:41;;;;;;;5.68;4.78;;;24.90;1.00;;;;;;5067131;28;20066;-71
2021/07/27 11:42:30;;;;;;;6.47;4.57;;;25.10;1.00;;;;;;5083334;28;20115;-72
2021/07/27 11:45:24;;;;;;;9.27;5.45;;;25.20;1.00;;;;;;5078528;28;20040;-71
2021/07/27 11:48:13;;;;;;;6.20;4.65;;;25.00;1.00;;;;;;5085667;28;20036;-72
2021/07/27 11:51:03;;;;;;;6.82;5.40;;;25.00;1.00;;;;;;5081772;28;20462;-72
2021/07/27 11:53:55;;;;;;;9.70;5.28;;;25.00;1.00;;;;;;5081647;28;20132;-71
2021/07/27 11:56:48;;;;;;;7.25;4.75;;;24.90;1.00;;;;;;5078815;28;20051;-71
2021/07/27 11:59:37;;;;;;;5.85;4.65;;;24.90;1.00;;;;;;5082172;28;20514;-71
2021/07/27 12:02:25;;;;;;;4.97;4.38;;;25.20;1.00;;;;;;5085604;28;20491;-71
2021/07/27 12:05:14;;;;;;;7.80;5.03;;;25.10;1.00;;;;;;5077284;28;20044;-71
2021/07/27 12:08:05;;;;;;;5.82;5.22;;;24.90;1.00;;;;;;5077533;28;20425;-71
2021/07/27 12:10:53;;;;;;;6.57;4.38;;;25.30;1.00;;;;;;5081501;28;20047;-72
2021/07/27 12:13:41;;;;;;;6.22;4.70;;;25.70;1.00;;;;;;5082345;28;20482;-72
2021/07/27 12:16:31;;;;;;;5.18;4.18;;;25.70;1.00;;;;;;5074431;28;20073;-72
2021/07/27 12:19:19;;;;;;;7.03;4.72;;;26.30;1.00;;;;;;5065374;28;20528;-71
2021/07/27 12:22:07;;;;;;;6.35;4.10;;;26.00;1.00;;;;;;5084406;28;20155;-71
2021/07/27 12:24:57;;;;;;;6.18;4.35;;;26.50;1.00;;;;;;5077020;28;20054;-71
2021/07/27 12:27:46;;;;;;;5.35;4.28;;;26.60;1.00;;;;;;5080804;28;20574;-72
2021/07/27 12:30:34;;;;;;;4.53;4.03;;;26.90;1.00;;;;;;5080880;28;20081;-72
2021/07/27 12:33:22;;;;;;;8.48;4.13;;;26.90;1.00;;;;;;5084747;28;20040;-72
2021/07/27 12:36:11;;;;;;;5.00;3.83;;;26.70;1.00;;;;;;5074414;28;20041;-72
2021/07/27 12:38:59;;;;;;;6.28;4.10;;;27.00;1.00;;;;;;5081571;28;20058;-72
2021/07/27 12:41:49;;;;;;;6.28;3.90;;;27.20;1.00;;;;;;5083246;28;20395;-73
2021/07/27 12:44:37;;;;;;;5.60;4.00;;;27.30;1.00;;;;;;5079354;28;20052;-73
2021/07/27 12:47:27;;;;;;;5.18;4.15;;;26.80;1.00;;;;;;5082617;28;20091;-71
2021/07/27 12:50:18;;;;;;;4.32;3.88;;;26.70;1.00;;;;;;5082441;28;20126;-72
2021/07/27 12:53:07;;;;;;;6.03;3.92;;;27.10;1.00;;;;;;5080692;28;20406;-72
2021/07/27 12:55:58;;;;;;;6.43;4.30;;;27.30;1.00;;;;;;5076401;28;20498;-73
2021/07/27 12:58:48;;;;;;;6.20;4.47;;;27.10;1.00;;;;;;5078787;28;20048;-73
2021/07/27 13:01:36;;;;;;;5.63;3.80;;;27.30;1.00;;;;;;5080455;28;20489;-72
2021/07/27 13:04:25;;;;;;;6.68;4.32;;;27.50;1.00;;;;;;5079711;28;20059;-72
2021/07/27 13:07:14;;;;;;;5.35;4.10;;;27.60;1.00;;;;;;5050413;28;20499;-71
2021/07/27 13:10:04;;;;;;;5.20;3.78;;;26.90;1.00;;;;;;5080482;28;20093;-72
2021/07/27 13:12:53;;;;;;;7.20;4.30;;;26.80;1.00;;;;;;5067526;28;20071;-73
2021/07/27 13:15:43;;;;;;;6.75;3.78;;;26.80;1.00;;;;;;5061007;28;20054;-72
2021/07/27 13:18:34;;;;;;;4.75;4.03;;;26.90;1.00;;;;;;5073387;28;20877;-72
2021/07/27 13:21:24;;;;;;;5.05;3.75;;;26.90;1.00;;;;;;5067629;28;20044;-72
2021/07/27 13:24:13;;;;;;;4.35;3.72;;;27.00;1.00;;;;;;5082789;28;20037;-72
2021/07/27 13:27:02;;;;;;;5.75;4.00;;;27.20;1.00;;;;;;5088181;28;20044;-73
2021/07/27 13:29:51;;;;;;;4.95;3.85;;;27.60;1.00;;;;;;5087276;28;20434;-73
2021/07/27 13:32:41;;;;;;;4.18;3.78;;;27.90;1.00;;;;;;5067345;28;20044;-72
2021/07/27 13:35:30;;;;;;;6.18;4.45;;;27.60;1.00;;;;;;5057912;28;20450;-72
2021/07/27 13:38:19;;;;;;;5.22;3.85;;;27.30;1.00;;;;;;5078621;28;20117;-72
2021/07/27 13:41:08;;;;;;;4.75;4.10;;;27.20;1.00;;;;;;5081927;28;20051;-72
2021/07/27 13:43:56;;;;;;;5.63;3.97;;;27.10;1.00;;;;;;5067168;28;20153;-72
2021/07/27 13:46:45;;;;;;;4.72;4.00;;;26.90;1.00;;;;;;5067095;28;20177;-72
2021/07/27 13:49:36;;;;;;;4.88;3.53;;;27.00;1.00;;;;;;5056627;28;20076;-72
2021/07/27 13:52:25;;;;;;;6.05;3.40;;;26.80;1.00;;;;;;5068777;28;20052;-72
2021/07/27 13:55:14;;;;;;;4.60;3.40;;;26.80;1.00;;;;;;5080949;28;20044;-72
2021/07/27 13:58:03;;;;;;;5.30;3.35;;;27.10;1.00;;;;;;5081163;28;20040;-72
2021/07/27 14:00:52;;;;;;;5.05;2.80;;;27.60;1.00;;;;;;5055373;28;20059;-73
2021/07/27 14:03:42;;;;;;;6.25;3.85;;;27.80;1.00;;;;;;5071692;28;20259;-72
2021/07/27 14:06:32;;;;;;;5.57;3.30;;;27.90;1.00;;;;;;5083338;28;20036;-72
2021/07/27 14:09:21;;;;;;;4.18;3.20;;;27.70;1.00;;;;;;5082088;28;20081;-72
2021/07/27 14:12:10;;;;;;;3.38;3.00;;;27.50;1.00;;;;;;5087070;28;20070;-72
2021/07/27 14:14:58;;;;;;;4.13;3.03;;;27.50;1.00;;;;;;5081285;28;21523;-73
2021/07/27 14:17:47;;;;;;;3.55;3.10;;;27.50;1.00;;;;;;5083862;28;20052;-72
2021/07/27 14:20:36;;;;;;;3.67;2.97;;;27.70;1.00;;;;;;5084362;28;20121;-73
2021/07/27 14:23:26;;;;;;;4.13;2.90;;;27.80;1.00;;;;;;5083842;28;20133;-72
2021/07/27 14:26:15;;;;;;;5.93;3.50;;;27.50;1.00;;;;;;5084751;28;20047;-73
2021/07/27 14:29:04;;;;;;;4.05;3.10;;;27.20;1.00;;;;;;5069886;28;20118;-73
2021/07/27 14:31:53;;;;;;;5.43;3.22;;;27.50;1.00;;;;;;5083204;28;20533;-73
2021/07/27 14:34:42;;;;;;;4.88;2.67;;;27.70;1.00;;;;;;5081574;28;20040;-73
2021/07/27 14:37:31;;;;;;;4.95;3.20;;;27.70;1.00;;;;;;5081152;28;20044;-71
2021/07/27 14:40:21;;;;;;;3.47;3.17;;;27.40;1.00;;;;;;5070324;28;20074;-72
2021/07/27 14:43:09;;;;;;;4.30;3.80;;;27.40;1.00;;;;;;5088052;28;20136;-72
2021/07/27 14:45:59;;;;;;;4.38;3.20;;;27.10;1.00;;;;;;5080415;28;20131;-72
2021/07/27 14:48:48;;;;;;;5.13;3.17;;;27.20;1.00;;;;;;5085618;28;20158;-72
2021/07/27 14:51:36;;;;;;;4.10;3.25;;;27.00;1.00;;;;;;5081496;28;20101;-72
2021/07/27 14:54:25;;;;;;;6.43;3.85;;;27.00;1.00;;;;;;5083638;28;20087;-71
2021/07/27 14:57:15;;;;;;;5.00;3.65;;;27.00;1.00;;;;;;5086029;28;20431;-72
2021/07/27 15:00:06;;;;;;;5.60;3.63;;;27.20;1.00;;;;;;5081056;28;20043;-73
2021/07/27 15:02:56;;;;;;;4.65;3.30;;;26.90;1.00;;;;;;5084532;28;20109;-73